createdAt,value
2023-01-10T00:00:46.751Z,100.00
2023-01-10T00:03:28.615Z,100.00
2023-01-10T00:05:55.489Z,100.00
2023-01-10T00:08:23.047Z,100.00
2023-01-10T00:10:50.274Z,100.00
2023-01-10T00:13:24.429Z,100.00
2023-01-10T00:15:56.080Z,100.00
2023-01-10T00:18:23.284Z,100.00
2023-01-10T00:20:50.469Z,100.00
2023-01-10T00:23:18.524Z,100.00
2023-01-10T00:25:46.374Z,100.00
2023-01-10T00:28:19.472Z,100.00
2023-01-10T00:31:01.525Z,100.00
2023-01-10T00:33:32.091Z,100.00
2023-01-10T00:36:00.440Z,100.00
2023-01-10T00:38:28.752Z,100.00
2023-01-10T00:40:55.636Z,100.00
2023-01-10T00:43:41.451Z,100.00
2023-01-10T00:46:09.838Z,100.00
2023-01-10T00:48:37.663Z,100.00
2023-01-10T00:51:05.359Z,100.00
2023-01-10T00:53:32.690Z,100.00
2023-01-10T00:55:59.586Z,100.00
2023-01-10T00:58:26.949Z,100.00
2023-01-10T01:00:53.840Z,100.00
2023-01-10T01:03:23.338Z,100.00
2023-01-10T01:05:50.711Z,100.00
2023-01-10T01:08:19.248Z,100.00
2023-01-10T01:10:46.564Z,100.00
2023-01-10T01:13:20.089Z,100.00
2023-01-10T01:15:48.498Z,100.00
2023-01-10T01:18:19.080Z,100.00
2023-01-10T01:20:45.959Z,100.00
2023-01-10T01:23:14.532Z,100.00
2023-01-10T01:25:42.022Z,100.00
2023-01-10T01:28:12.729Z,100.00
2023-01-10T01:30:39.994Z,100.00
2023-01-10T01:33:07.863Z,100.00
2023-01-10T01:35:35.166Z,100.00
2023-01-10T01:38:02.504Z,100.00
2023-01-10T01:40:29.807Z,100.00
2023-01-10T01:42:57.037Z,100.00
2023-01-10T01:45:23.928Z,100.00
2023-01-10T01:47:59.457Z,100.00
2023-01-10T01:50:43.762Z,100.00
2023-01-10T01:53:20.946Z,100.00
2023-01-10T01:55:49.183Z,100.00
2023-01-10T01:58:20.396Z,100.00
2023-01-10T02:00:47.379Z,100.00
2023-01-10T02:03:15.412Z,100.00
2023-01-10T02:05:44.138Z,100.00
2023-01-10T02:08:13.361Z,100.00
2023-01-10T02:11:06.175Z,100.00
2023-01-10T02:13:35.156Z,100.00
2023-01-10T02:16:02.031Z,100.00
2023-01-10T02:18:29.365Z,100.00
2023-01-10T02:21:18.287Z,100.00
2023-01-10T02:24:04.201Z,100.00
2023-01-10T02:26:59.285Z,100.00
2023-01-10T02:29:40.131Z,100.00
2023-01-10T02:32:13.039Z,100.00
2023-01-10T02:35:07.424Z,100.00
2023-01-10T02:37:51.357Z,100.00
2023-01-10T02:40:47.516Z,100.00
2023-01-10T02:43:19.502Z,100.00
2023-01-10T02:45:52.417Z,100.00
2023-01-10T02:48:19.463Z,100.00
2023-01-10T02:51:08.557Z,100.00
2023-01-10T02:53:41.396Z,100.00
2023-01-10T02:56:20.739Z,100.00
2023-01-10T02:59:06.518Z,100.00
2023-01-10T03:01:58.164Z,100.00
2023-01-10T03:04:26.120Z,100.00
2023-01-10T03:06:59.449Z,100.00
2023-01-10T03:09:35.289Z,100.00
2023-01-10T03:12:14.627Z,100.00
2023-01-10T03:14:45.216Z,100.00
2023-01-10T03:17:14.927Z,100.00
2023-01-10T03:19:47.281Z,100.00
2023-01-10T03:22:15.106Z,100.00
2023-01-10T03:24:51.656Z,100.00
2023-01-10T03:27:19.259Z,100.00
2023-01-10T03:29:54.941Z,100.00
2023-01-10T03:32:27.722Z,100.00
2023-01-10T03:34:56.043Z,100.00
2023-01-10T03:37:42.394Z,100.00
2023-01-10T03:40:28.709Z,100.00
2023-01-10T03:43:20.658Z,100.00
2023-01-10T03:46:38.091Z,100.00
2023-01-10T03:49:08.111Z,100.00
2023-01-10T03:51:37.618Z,100.00
2023-01-10T03:54:05.296Z,100.00
2023-01-10T03:56:43.069Z,100.00
2023-01-10T03:59:10.497Z,100.00
2023-01-10T04:01:37.668Z,100.00
2023-01-10T04:04:05.183Z,100.00
2023-01-10T04:06:32.083Z,100.00
2023-01-10T04:08:59.291Z,100.00
2023-01-10T04:11:44.567Z,100.00
2023-01-10T04:14:11.787Z,100.00
2023-01-10T04:16:38.631Z,100.00
2023-01-10T04:19:06.063Z,100.00
2023-01-10T04:21:32.957Z,100.00
2023-01-10T04:24:00.299Z,100.00
2023-01-10T04:26:27.362Z,100.00
2023-01-10T04:28:54.589Z,100.00
2023-01-10T04:31:22.941Z,100.00
2023-01-10T04:33:50.136Z,100.00
2023-01-10T04:36:16.971Z,100.00
2023-01-10T04:38:44.172Z,100.00
2023-01-10T04:41:11.039Z,100.00
2023-01-10T04:43:38.192Z,100.00
2023-01-10T04:46:05.373Z,100.00
2023-01-10T04:48:33.661Z,100.00
2023-01-10T04:51:00.584Z,100.00
2023-01-10T04:53:27.855Z,100.00
2023-01-10T04:55:54.738Z,100.00
2023-01-10T04:58:21.921Z,100.00
2023-01-10T05:00:48.812Z,100.00
2023-01-10T05:03:20.194Z,100.00
2023-01-10T05:05:47.150Z,100.00
2023-01-10T05:08:15.417Z,100.00
2023-01-10T05:10:42.265Z,100.00
2023-01-10T05:13:09.399Z,100.00
2023-01-10T05:15:36.311Z,100.00
2023-01-10T05:18:03.596Z,100.00
2023-01-10T05:20:30.567Z,100.00
2023-01-10T05:22:57.838Z,100.00
2023-01-10T05:25:24.785Z,100.00
2023-01-10T05:27:52.012Z,100.00
2023-01-10T05:30:19.406Z,100.00
2023-01-10T05:32:46.617Z,100.00
2023-01-10T05:35:13.794Z,100.00
2023-01-10T05:37:41.035Z,100.00
2023-01-10T05:40:08.927Z,100.00
2023-01-10T05:42:36.226Z,100.00
2023-01-10T05:45:03.501Z,100.00
2023-01-10T05:47:30.742Z,100.00
2023-01-10T05:49:57.755Z,100.00
2023-01-10T05:52:24.903Z,100.00
2023-01-10T05:54:51.755Z,100.00
2023-01-10T05:57:19.255Z,100.00
2023-01-10T05:59:46.260Z,100.00
2023-01-10T06:02:13.563Z,100.00
2023-01-10T06:04:40.586Z,100.00
2023-01-10T06:07:07.863Z,100.00
2023-01-10T06:09:34.744Z,100.00
2023-01-10T06:12:02.259Z,100.00
2023-01-10T06:14:29.104Z,100.00
2023-01-10T06:16:57.211Z,100.00
2023-01-10T06:19:24.102Z,100.00
2023-01-10T06:21:51.326Z,100.00
2023-01-10T06:24:18.390Z,100.00
2023-01-10T06:26:45.720Z,100.00
2023-01-10T06:29:12.727Z,100.00
2023-01-10T06:31:40.128Z,100.00
2023-01-10T06:34:07.124Z,100.00
2023-01-10T06:36:34.304Z,100.00
2023-01-10T06:39:01.510Z,100.00
2023-01-10T06:41:28.766Z,100.00
2023-01-10T06:43:55.704Z,100.00
2023-01-10T06:46:23.146Z,100.00
2023-01-10T06:48:50.216Z,100.00
2023-01-10T06:51:20.056Z,100.00
2023-01-10T06:53:47.587Z,100.00
2023-01-10T06:56:14.997Z,100.00
2023-01-10T06:58:42.007Z,100.00
2023-01-10T07:01:18.468Z,100.00
2023-01-10T07:03:45.570Z,100.00
2023-01-10T07:06:12.910Z,100.00
2023-01-10T07:08:42.115Z,100.00
2023-01-10T07:11:10.811Z,100.00
2023-01-10T07:13:38.470Z,100.00
2023-01-10T07:16:14.117Z,100.00
2023-01-10T07:18:43.067Z,100.00
2023-01-10T07:21:11.621Z,100.00
2023-01-10T07:23:38.862Z,100.00
2023-01-10T07:26:09.000Z,100.00
2023-01-10T07:28:36.179Z,100.00
2023-01-10T07:31:05.818Z,100.00
2023-01-10T07:33:32.911Z,100.00
2023-01-10T07:36:01.237Z,100.00
2023-01-10T07:38:28.561Z,100.00
2023-01-10T07:40:55.904Z,100.00
2023-01-10T07:43:22.851Z,100.00
2023-01-10T07:45:50.068Z,100.00
2023-01-10T07:48:17.094Z,100.00
2023-01-10T07:50:44.361Z,100.00
2023-01-10T07:53:12.771Z,100.00
2023-01-10T07:55:40.190Z,100.00
2023-01-10T07:58:08.085Z,100.00
2023-01-10T08:00:35.898Z,100.00
2023-01-10T08:03:03.071Z,100.00
2023-01-10T08:05:30.965Z,100.00
2023-01-10T08:08:00.227Z,100.00
2023-01-10T08:10:27.867Z,100.00
2023-01-10T08:12:54.920Z,100.00
2023-01-10T08:15:22.216Z,100.00
2023-01-10T08:17:49.159Z,100.00
2023-01-10T08:20:16.512Z,100.00
2023-01-10T08:22:43.406Z,100.00
2023-01-10T08:25:10.937Z,100.00
2023-01-10T08:27:46.379Z,100.00
2023-01-10T08:30:14.334Z,100.00
2023-01-10T08:32:41.311Z,100.00
2023-01-10T08:35:09.385Z,100.00
2023-01-10T08:37:36.253Z,100.00
2023-01-10T08:40:04.058Z,100.00
2023-01-10T08:42:31.078Z,100.00
2023-01-10T08:45:00.377Z,100.00
2023-01-10T08:47:29.402Z,100.00
2023-01-10T08:49:56.729Z,100.00
2023-01-10T08:52:23.675Z,100.00
2023-01-10T08:54:51.028Z,100.00
2023-01-10T08:57:17.948Z,100.00
2023-01-10T08:59:45.163Z,100.00
2023-01-10T09:02:15.504Z,99.68
2023-01-10T09:04:42.869Z,99.66
2023-01-10T09:07:09.811Z,99.85
2023-01-10T09:09:37.141Z,99.88
2023-01-10T09:12:24.301Z,100.00
2023-01-10T09:14:51.671Z,100.00
2023-01-10T09:17:18.645Z,100.00
2023-01-10T09:19:45.894Z,100.00
2023-01-10T09:22:12.821Z,100.00
2023-01-10T09:24:41.853Z,99.29
2023-01-10T09:27:08.772Z,99.10
2023-01-10T09:29:35.923Z,99.17
2023-01-10T09:32:02.869Z,99.63
2023-01-10T09:34:30.212Z,99.34
2023-01-10T09:36:57.330Z,98.50
2023-01-10T09:39:25.634Z,98.60
2023-01-10T09:42:04.691Z,98.87
2023-01-10T09:44:57.600Z,98.45
2023-01-10T09:47:52.012Z,98.25
2023-01-10T09:50:36.275Z,97.76
2023-01-10T09:53:10.852Z,97.81
2023-01-10T09:55:39.160Z,97.54
2023-01-10T09:58:16.197Z,98.02
2023-01-10T10:00:57.434Z,98.28
2023-01-10T10:03:48.185Z,97.86
2023-01-10T10:06:15.684Z,97.56
2023-01-10T10:08:45.479Z,97.47
2023-01-10T10:11:28.240Z,97.67
2023-01-10T10:14:18.290Z,97.87
2023-01-10T10:17:03.631Z,97.66
2023-01-10T10:19:50.517Z,97.98
2023-01-10T10:22:42.767Z,97.87
2023-01-10T10:25:28.178Z,97.86
2023-01-10T10:28:16.921Z,97.40
2023-01-10T10:31:00.110Z,96.98
2023-01-10T10:33:30.434Z,97.24
2023-01-10T10:36:09.642Z,97.32
2023-01-10T10:38:43.675Z,97.01
2023-01-10T10:41:19.615Z,97.47
2023-01-10T10:43:48.752Z,98.01
2023-01-10T10:46:20.106Z,97.68
2023-01-10T10:49:35.536Z,98.00
2023-01-10T10:52:09.462Z,97.97
2023-01-10T10:54:37.167Z,97.84
2023-01-10T10:57:04.274Z,98.27
2023-01-10T10:59:31.517Z,98.38
2023-01-10T11:01:58.678Z,98.19
2023-01-10T11:04:27.083Z,98.62
2023-01-10T11:06:54.694Z,98.65
2023-01-10T11:09:33.694Z,99.11
2023-01-10T11:12:01.172Z,99.23
2023-01-10T11:14:49.834Z,98.44
2023-01-10T11:17:26.028Z,98.15
2023-01-10T11:19:57.718Z,98.44
2023-01-10T11:22:26.338Z,98.41
2023-01-10T11:25:00.423Z,98.52
2023-01-10T11:27:32.739Z,98.22
2023-01-10T11:30:08.815Z,98.27
2023-01-10T11:32:40.249Z,98.14
2023-01-10T11:35:17.780Z,98.14
2023-01-10T11:38:05.841Z,97.58
2023-01-10T11:40:36.327Z,97.54
2023-01-10T11:43:41.467Z,97.55
2023-01-10T11:46:21.729Z,97.13
2023-01-10T11:49:06.785Z,96.78
2023-01-10T11:51:40.575Z,97.02
2023-01-10T11:54:12.547Z,97.26
2023-01-10T11:56:41.650Z,96.89
2023-01-10T11:59:12.688Z,96.82
2023-01-10T12:01:45.019Z,97.07
2023-01-10T12:04:21.205Z,97.04
2023-01-10T12:06:52.186Z,96.54
2023-01-10T12:09:32.773Z,96.70
2023-01-10T12:12:26.333Z,96.92
2023-01-10T12:14:55.878Z,97.02
2023-01-10T12:17:30.159Z,96.88
2023-01-10T12:20:00.734Z,97.07
2023-01-10T12:22:35.864Z,97.24
2023-01-10T12:25:15.462Z,97.00
2023-01-10T12:27:44.753Z,96.72
2023-01-10T12:30:17.078Z,96.73
2023-01-10T12:32:52.207Z,96.94
2023-01-10T12:35:23.151Z,96.67
2023-01-10T12:37:56.192Z,96.48
2023-01-10T12:40:37.698Z,96.07
2023-01-10T12:43:47.997Z,95.86
2023-01-10T12:46:56.569Z,95.90
2023-01-10T12:49:43.466Z,95.45
2023-01-10T12:52:18.216Z,95.91
2023-01-10T12:54:47.294Z,95.77
2023-01-10T12:57:39.705Z,95.70
2023-01-10T13:00:15.631Z,95.46
2023-01-10T13:02:46.446Z,95.23
2023-01-10T13:05:27.527Z,95.55
2023-01-10T13:08:12.481Z,94.97
2023-01-10T13:10:47.419Z,95.04
2023-01-10T13:13:29.557Z,94.50
2023-01-10T13:16:15.590Z,94.69
2023-01-10T13:19:11.883Z,95.07
2023-01-10T13:21:41.110Z,94.88
2023-01-10T13:24:28.988Z,94.97
2023-01-10T13:27:02.133Z,94.69
2023-01-10T13:29:40.819Z,95.31
2023-01-10T13:32:25.081Z,95.67
2023-01-10T13:34:52.768Z,95.40
2023-01-10T13:37:31.360Z,95.63
2023-01-10T13:40:00.665Z,95.98
2023-01-10T13:42:49.578Z,95.55
2023-01-10T13:45:21.245Z,95.89
2023-01-10T13:47:52.913Z,96.15
2023-01-10T13:50:28.905Z,96.21
2023-01-10T13:53:06.952Z,96.54
2023-01-10T13:55:53.931Z,96.48
2023-01-10T13:58:43.038Z,96.47
2023-01-10T14:01:49.217Z,96.30
2023-01-10T14:04:24.175Z,96.29
2023-01-10T14:06:54.201Z,95.81
2023-01-10T14:09:21.472Z,96.34
2023-01-10T14:11:58.464Z,96.01
2023-01-10T14:14:33.386Z,96.34
2023-01-10T14:17:28.280Z,96.00
2023-01-10T14:20:21.006Z,94.95
2023-01-10T14:22:58.751Z,95.25
2023-01-10T14:25:27.616Z,95.01
2023-01-10T14:27:56.461Z,95.12
2023-01-10T14:30:38.007Z,95.74
2023-01-10T14:33:14.024Z,96.06
2023-01-10T14:35:46.704Z,95.61
2023-01-10T14:38:29.879Z,95.33
2023-01-10T14:41:13.680Z,95.69
2023-01-10T14:43:53.510Z,95.62
2023-01-10T14:46:28.894Z,95.34
2023-01-10T14:49:00.677Z,95.39
2023-01-10T14:51:30.786Z,95.64
2023-01-10T14:54:04.771Z,95.61
2023-01-10T14:56:47.152Z,95.31
2023-01-10T14:59:28.478Z,94.90
2023-01-10T15:02:02.820Z,94.65
2023-01-10T15:04:33.378Z,94.28
2023-01-10T15:07:05.337Z,94.39
2023-01-10T15:09:32.253Z,94.73
2023-01-10T15:12:03.001Z,94.61
2023-01-10T15:14:32.162Z,94.11
2023-01-10T15:17:02.573Z,94.33
2023-01-10T15:19:38.345Z,93.69
2023-01-10T15:22:38.292Z,93.15
2023-01-10T15:25:28.557Z,93.06
2023-01-10T15:27:58.040Z,93.26
2023-01-10T15:30:31.146Z,92.88
2023-01-10T15:33:07.726Z,92.96
2023-01-10T15:35:37.165Z,92.91
2023-01-10T15:38:12.399Z,92.62
2023-01-10T15:40:41.068Z,92.31
2023-01-10T15:43:11.445Z,92.50
2023-01-10T15:45:40.014Z,92.75
2023-01-10T15:48:27.522Z,92.93
2023-01-10T15:51:14.985Z,93.29
2023-01-10T15:54:04.856Z,93.50
2023-01-10T15:56:41.015Z,93.49
2023-01-10T15:59:22.379Z,93.81
2023-01-10T16:02:27.108Z,93.51
2023-01-10T16:04:58.000Z,93.07
2023-01-10T16:07:31.314Z,93.22
2023-01-10T16:10:15.534Z,93.66
2023-01-10T16:13:02.089Z,94.08
2023-01-10T16:15:35.621Z,94.35
2023-01-10T16:18:02.655Z,94.38
2023-01-10T16:20:35.276Z,94.17
2023-01-10T16:23:05.206Z,94.18
2023-01-10T16:25:35.324Z,94.83
2023-01-10T16:28:02.842Z,95.22
2023-01-10T16:30:32.913Z,95.61
2023-01-10T16:33:17.648Z,95.43
2023-01-10T16:35:46.696Z,95.12
2023-01-10T16:38:15.764Z,94.95
2023-01-10T16:40:57.285Z,94.76
2023-01-10T16:43:27.123Z,94.45
2023-01-10T16:45:55.062Z,94.63
2023-01-10T16:48:22.199Z,94.46
2023-01-10T16:50:49.435Z,93.94
2023-01-10T16:53:18.460Z,93.99
2023-01-10T16:55:53.489Z,94.17
2023-01-10T16:58:21.200Z,94.26
2023-01-10T17:00:51.523Z,94.16
2023-01-10T17:03:23.762Z,94.19
2023-01-10T17:05:51.931Z,94.60
2023-01-10T17:08:21.837Z,95.03
2023-01-10T17:10:52.520Z,94.93
2023-01-10T17:13:26.368Z,95.20
2023-01-10T17:15:53.592Z,95.15
2023-01-10T17:18:20.580Z,94.61
2023-01-10T17:20:47.964Z,94.90
2023-01-10T17:23:15.741Z,94.58
2023-01-10T17:25:43.064Z,95.04
2023-01-10T17:28:11.731Z,94.62
2023-01-10T17:30:40.407Z,94.69
2023-01-10T17:33:10.967Z,94.63
2023-01-10T17:35:42.543Z,94.76
2023-01-10T17:38:12.059Z,94.00
2023-01-10T17:40:41.270Z,93.96
2023-01-10T17:43:09.138Z,93.88
2023-01-10T17:45:39.988Z,94.06
2023-01-10T17:48:07.467Z,93.85
2023-01-10T17:50:35.540Z,93.59
2023-01-10T17:53:02.528Z,94.05
2023-01-10T17:55:29.983Z,93.78
2023-01-10T17:57:57.122Z,93.73
2023-01-10T18:00:24.931Z,93.72
2023-01-10T18:02:52.026Z,93.35
2023-01-10T18:05:19.428Z,92.96
2023-01-10T18:07:46.694Z,92.94
2023-01-10T18:10:13.916Z,93.25
2023-01-10T18:12:40.812Z,92.88
2023-01-10T18:15:08.647Z,92.97
2023-01-10T18:17:35.759Z,93.22
2023-01-10T18:20:03.643Z,92.85
2023-01-10T18:22:49.161Z,91.38
2023-01-10T18:25:17.568Z,91.51
2023-01-10T18:27:50.151Z,91.61
2023-01-10T18:30:21.769Z,91.61
2023-01-10T18:32:50.115Z,90.94
2023-01-10T18:35:17.945Z,90.73
2023-01-10T18:37:45.766Z,90.88
2023-01-10T18:40:13.921Z,90.87
2023-01-10T18:42:40.976Z,91.20
2023-01-10T18:45:08.697Z,90.75
2023-01-10T18:47:35.643Z,91.00
2023-01-10T18:50:02.935Z,91.32
2023-01-10T18:52:30.308Z,90.54
2023-01-10T18:54:57.542Z,90.22
2023-01-10T18:57:24.986Z,89.77
2023-01-10T18:59:52.204Z,90.37
2023-01-10T19:02:19.333Z,90.74
2023-01-10T19:04:46.842Z,91.23
2023-01-10T19:07:13.874Z,91.30
2023-01-10T19:09:41.064Z,91.21
2023-01-10T19:12:08.385Z,91.11
2023-01-10T19:14:35.649Z,90.51
2023-01-10T19:17:03.602Z,90.21
2023-01-10T19:19:30.907Z,89.79
2023-01-10T19:21:57.906Z,89.60
2023-01-10T19:24:27.750Z,89.35
2023-01-10T19:26:55.999Z,89.68
2023-01-10T19:29:23.987Z,88.87
2023-01-10T19:31:51.054Z,89.49
2023-01-10T19:34:18.627Z,89.87
2023-01-10T19:36:45.685Z,89.73
2023-01-10T19:39:13.954Z,89.87
2023-01-10T19:41:41.816Z,90.17
2023-01-10T19:44:13.597Z,89.96
2023-01-10T19:46:40.794Z,90.47
2023-01-10T19:49:08.542Z,90.95
2023-01-10T19:51:37.936Z,90.54
2023-01-10T19:54:06.530Z,90.14
2023-01-10T19:56:34.775Z,90.19
2023-01-10T19:59:01.980Z,90.75
2023-01-10T20:01:31.265Z,90.64
2023-01-10T20:04:01.710Z,90.48
2023-01-10T20:06:30.986Z,90.04
2023-01-10T20:08:58.844Z,90.09
2023-01-10T20:11:27.497Z,90.34
2023-01-10T20:13:54.739Z,90.28
2023-01-10T20:16:23.512Z,90.22
2023-01-10T20:18:52.257Z,90.83
2023-01-10T20:21:20.376Z,91.17
2023-01-10T20:23:48.246Z,91.36
2023-01-10T20:26:18.814Z,91.74
2023-01-10T20:28:47.981Z,92.36
2023-01-10T20:31:23.468Z,93.05
2023-01-10T20:33:51.104Z,93.20
2023-01-10T20:36:21.022Z,93.68
2023-01-10T20:38:48.923Z,94.11
2023-01-10T20:41:19.713Z,94.38
2023-01-10T20:43:47.195Z,95.09
2023-01-10T20:46:17.235Z,95.23
2023-01-10T20:48:46.152Z,95.59
2023-01-10T20:51:16.139Z,96.48
2023-01-10T20:53:44.334Z,97.08
2023-01-10T20:56:15.016Z,97.11
2023-01-10T20:58:42.474Z,97.73
2023-01-10T21:01:10.568Z,98.46
2023-01-10T21:03:37.887Z,98.64
2023-01-10T21:06:05.095Z,99.18
2023-01-10T21:08:32.547Z,98.93
2023-01-10T21:10:59.433Z,99.84
2023-01-10T21:13:27.166Z,99.69
2023-01-10T21:15:56.760Z,100.00
2023-01-10T21:18:35.113Z,100.00
2023-01-10T21:21:02.048Z,100.00
2023-01-10T21:23:29.779Z,100.00
2023-01-10T21:26:03.109Z,100.00
2023-01-10T21:28:33.507Z,100.00
2023-01-10T21:31:00.473Z,100.00
2023-01-10T21:33:27.807Z,100.00
2023-01-10T21:35:57.881Z,100.00
2023-01-10T21:38:27.408Z,100.00
2023-01-10T21:40:55.689Z,100.00
2023-01-10T21:43:23.602Z,100.00
2023-01-10T21:45:50.675Z,100.00
2023-01-10T21:48:17.946Z,100.00
2023-01-10T21:50:48.319Z,100.00
2023-01-10T21:53:15.519Z,100.00
2023-01-10T21:55:44.064Z,100.00
2023-01-10T21:58:11.494Z,100.00
2023-01-10T22:00:38.472Z,100.00
2023-01-10T22:03:05.722Z,100.00
2023-01-10T22:05:32.725Z,100.00
2023-01-10T22:08:00.025Z,100.00
2023-01-10T22:10:27.003Z,100.00
2023-01-10T22:12:54.294Z,100.00
2023-01-10T22:15:21.181Z,100.00
2023-01-10T22:17:48.494Z,100.00
2023-01-10T22:20:16.921Z,100.00
2023-01-10T22:22:44.108Z,100.00
2023-01-10T22:25:11.039Z,100.00
2023-01-10T22:27:38.222Z,100.00
2023-01-10T22:30:05.837Z,100.00
2023-01-10T22:32:33.025Z,100.00
2023-01-10T22:35:00.094Z,100.00
2023-01-10T22:37:27.265Z,100.00
2023-01-10T22:39:54.187Z,100.00
2023-01-10T22:42:21.339Z,100.00
2023-01-10T22:44:48.271Z,100.00
2023-01-10T22:47:15.557Z,100.00
2023-01-10T22:49:42.547Z,100.00
2023-01-10T22:52:11.342Z,100.00
2023-01-10T22:54:38.257Z,100.00
2023-01-10T22:57:05.511Z,100.00
2023-01-10T22:59:42.366Z,100.00
2023-01-10T23:02:09.606Z,100.00
2023-01-10T23:04:36.477Z,100.00
2023-01-10T23:07:03.669Z,100.00
2023-01-10T23:09:30.982Z,100.00
2023-01-10T23:11:58.215Z,100.00
2023-01-10T23:14:25.220Z,100.00
2023-01-10T23:16:52.465Z,100.00
2023-01-10T23:19:19.381Z,100.00
2023-01-10T23:21:46.607Z,100.00
2023-01-10T23:24:15.024Z,100.00
2023-01-10T23:26:42.230Z,100.00
2023-01-10T23:29:09.108Z,100.00
2023-01-10T23:31:36.324Z,100.00
2023-01-10T23:34:03.249Z,100.00
2023-01-10T23:36:30.714Z,100.00
2023-01-10T23:38:58.174Z,100.00
2023-01-10T23:41:25.389Z,100.00
2023-01-10T23:43:52.303Z,100.00
2023-01-10T23:46:20.211Z,100.00
2023-01-10T23:48:48.491Z,100.00
2023-01-10T23:51:16.345Z,100.00
2023-01-10T23:53:43.335Z,100.00
2023-01-10T23:56:13.030Z,100.00
2023-01-10T23:58:40.953Z,100.00
